ヴィエンチャン の空港の天気 - METARとTAF

ワットタイ国際空港 ( VLVT / VTE ) - ラオス ヴィエンチャン
飛行場実況気象(Metar)
観測時間11/15 22:30 ICT (11/15 15:30 UTC)
風向・風速西北西 1m/s
視程3000m
天気現象もや
全天の4割程度の雲 雲底高度 1520m
気温22℃
湿度100%
気圧1013hPa
METARVLVT 151530Z 30002KT 3000 BR SCT050 22/22 Q1013 NOSIG
過去の天気等 Google飛行場航空写真 Wunderground天気予報

過去48時間のMETAR

飛行場予報(TAF)
発表時間: 11/15 18:00 ICT (11/15 11:00 UTC)
予報対象時間: 15日19時 ICT ~ 16日19時 ICT
風向・風速東南東 3m/s
視程10km以上
全天の4割程度の雲 雲底高度 610m
全天の4割程度の雲 雲底高度 1520m
TAF VLVT 151100Z 1512/1612 12006KT 9999 SCT020 SCT050